sensor_id;sensor_type;location;lat;lon;timestamp;P1;durP1;ratioP1;P2;durP2;ratioP2
41261;SDS011;29629;52.532;13.352;2024-03-02T00:00:48;162.48;;;84.80;;
41261;SDS011;29629;52.532;13.352;2024-03-02T00:03:16;151.82;;;81.18;;
41261;SDS011;29629;52.532;13.352;2024-03-02T00:05:44;165.95;;;86.43;;
41261;SDS011;29629;52.532;13.352;2024-03-02T00:08:17;150.85;;;82.78;;
41261;SDS011;29629;52.532;13.352;2024-03-02T00:10:49;162.32;;;85.68;;
41261;SDS011;29629;52.532;13.352;2024-03-02T00:13:16;155.45;;;81.95;;
41261;SDS011;29629;52.532;13.352;2024-03-02T00:15:48;176.98;;;89.97;;
41261;SDS011;29629;52.532;13.352;2024-03-02T00:18:19;143.13;;;80.65;;
41261;SDS011;29629;52.532;13.352;2024-03-02T00:20:48;151.23;;;81.32;;
41261;SDS011;29629;52.532;13.352;2024-03-02T00:23:18;150.68;;;83.10;;
41261;SDS011;29629;52.532;13.352;2024-03-02T00:25:47;169.68;;;87.63;;
41261;SDS011;29629;52.532;13.352;2024-03-02T00:28:19;151.50;;;83.00;;
41261;SDS011;29629;52.532;13.352;2024-03-02T00:33:16;166.32;;;88.97;;
41261;SDS011;29629;52.532;13.352;2024-03-02T00:35:44;180.82;;;92.95;;
41261;SDS011;29629;52.532;13.352;2024-03-02T00:38:12;155.43;;;86.70;;
41261;SDS011;29629;52.532;13.352;2024-03-02T00:40:40;158.10;;;90.03;;
41261;SDS011;29629;52.532;13.352;2024-03-02T00:43:10;148.50;;;84.85;;
41261;SDS011;29629;52.532;13.352;2024-03-02T00:45:59;151.57;;;85.18;;
41261;SDS011;29629;52.532;13.352;2024-03-02T00:48:26;151.30;;;84.50;;
41261;SDS011;29629;52.532;13.352;2024-03-02T00:50:56;160.98;;;88.18;;
41261;SDS011;29629;52.532;13.352;2024-03-02T00:53:25;158.75;;;89.05;;
41261;SDS011;29629;52.532;13.352;2024-03-02T00:55:52;173.05;;;90.50;;
41261;SDS011;29629;52.532;13.352;2024-03-02T00:58:19;159.15;;;88.57;;
41261;SDS011;29629;52.532;13.352;2024-03-02T01:00:46;153.65;;;87.38;;
41261;SDS011;29629;52.532;13.352;2024-03-02T01:03:13;164.38;;;88.82;;
41261;SDS011;29629;52.532;13.352;2024-03-02T01:05:41;168.57;;;91.15;;
41261;SDS011;29629;52.532;13.352;2024-03-02T01:08:08;158.25;;;86.10;;
41261;SDS011;29629;52.532;13.352;2024-03-02T01:10:36;153.32;;;86.18;;
41261;SDS011;29629;52.532;13.352;2024-03-02T01:13:03;173.70;;;93.05;;
41261;SDS011;29629;52.532;13.352;2024-03-02T01:15:31;146.93;;;85.80;;
41261;SDS011;29629;52.532;13.352;2024-03-02T01:17:58;162.55;;;87.72;;
41261;SDS011;29629;52.532;13.352;2024-03-02T01:20:25;156.43;;;86.15;;
41261;SDS011;29629;52.532;13.352;2024-03-02T01:22:52;149.63;;;85.63;;
41261;SDS011;29629;52.532;13.352;2024-03-02T01:25:19;153.05;;;85.78;;
41261;SDS011;29629;52.532;13.352;2024-03-02T01:27:47;156.60;;;88.22;;
41261;SDS011;29629;52.532;13.352;2024-03-02T01:30:14;157.05;;;88.78;;
41261;SDS011;29629;52.532;13.352;2024-03-02T01:32:41;147.43;;;84.00;;
41261;SDS011;29629;52.532;13.352;2024-03-02T01:35:09;155.82;;;87.25;;
41261;SDS011;29629;52.532;13.352;2024-03-02T01:37:36;152.73;;;86.78;;
41261;SDS011;29629;52.532;13.352;2024-03-02T01:40:03;160.98;;;88.93;;
41261;SDS011;29629;52.532;13.352;2024-03-02T01:42:34;161.27;;;89.00;;
41261;SDS011;29629;52.532;13.352;2024-03-02T01:45:03;161.10;;;89.93;;
41261;SDS011;29629;52.532;13.352;2024-03-02T01:47:31;167.77;;;90.15;;
41261;SDS011;29629;52.532;13.352;2024-03-02T01:49:58;158.75;;;89.03;;
41261;SDS011;29629;52.532;13.352;2024-03-02T01:52:26;153.35;;;88.82;;
41261;SDS011;29629;52.532;13.352;2024-03-02T01:54:54;162.80;;;90.07;;
41261;SDS011;29629;52.532;13.352;2024-03-02T01:57:21;155.60;;;88.03;;
41261;SDS011;29629;52.532;13.352;2024-03-02T01:59:48;152.68;;;87.35;;
41261;SDS011;29629;52.532;13.352;2024-03-02T02:02:18;177.73;;;92.95;;
41261;SDS011;29629;52.532;13.352;2024-03-02T02:04:45;158.95;;;86.30;;
41261;SDS011;29629;52.532;13.352;2024-03-02T02:07:12;156.20;;;87.93;;
41261;SDS011;29629;52.532;13.352;2024-03-02T02:09:39;159.45;;;89.28;;
41261;SDS011;29629;52.532;13.352;2024-03-02T02:12:07;158.23;;;88.47;;
41261;SDS011;29629;52.532;13.352;2024-03-02T02:14:35;156.77;;;87.68;;
41261;SDS011;29629;52.532;13.352;2024-03-02T02:17:02;159.38;;;89.35;;
41261;SDS011;29629;52.532;13.352;2024-03-02T02:19:31;164.98;;;90.80;;
41261;SDS011;29629;52.532;13.352;2024-03-02T02:21:59;161.07;;;89.13;;
41261;SDS011;29629;52.532;13.352;2024-03-02T02:24:26;161.48;;;90.40;;
41261;SDS011;29629;52.532;13.352;2024-03-02T02:26:53;156.65;;;89.05;;
41261;SDS011;29629;52.532;13.352;2024-03-02T02:29:20;162.68;;;90.10;;
41261;SDS011;29629;52.532;13.352;2024-03-02T02:31:47;155.55;;;90.50;;
41261;SDS011;29629;52.532;13.352;2024-03-02T02:34:14;153.57;;;89.03;;
41261;SDS011;29629;52.532;13.352;2024-03-02T02:36:41;164.68;;;91.47;;
41261;SDS011;29629;52.532;13.352;2024-03-02T02:39:11;159.07;;;89.45;;
41261;SDS011;29629;52.532;13.352;2024-03-02T02:41:42;156.80;;;87.93;;
41261;SDS011;29629;52.532;13.352;2024-03-02T02:44:09;155.07;;;88.63;;
41261;SDS011;29629;52.532;13.352;2024-03-02T02:46:37;159.38;;;88.82;;
41261;SDS011;29629;52.532;13.352;2024-03-02T02:49:04;159.25;;;88.95;;
41261;SDS011;29629;52.532;13.352;2024-03-02T02:51:31;169.55;;;91.53;;
41261;SDS011;29629;52.532;13.352;2024-03-02T02:53:58;153.52;;;87.30;;
41261;SDS011;29629;52.532;13.352;2024-03-02T02:56:27;158.15;;;87.50;;
41261;SDS011;29629;52.532;13.352;2024-03-02T02:58:54;158.70;;;88.03;;
41261;SDS011;29629;52.532;13.352;2024-03-02T03:01:21;160.52;;;88.88;;
41261;SDS011;29629;52.532;13.352;2024-03-02T03:03:48;170.57;;;89.03;;
41261;SDS011;29629;52.532;13.352;2024-03-02T03:06:15;154.75;;;86.93;;
41261;SDS011;29629;52.532;13.352;2024-03-02T03:08:41;161.02;;;88.78;;
41261;SDS011;29629;52.532;13.352;2024-03-02T03:11:08;162.93;;;89.43;;
41261;SDS011;29629;52.532;13.352;2024-03-02T03:13:37;157.90;;;87.93;;
41261;SDS011;29629;52.532;13.352;2024-03-02T03:16:04;157.23;;;87.72;;
41261;SDS011;29629;52.532;13.352;2024-03-02T03:18:32;164.02;;;89.20;;
41261;SDS011;29629;52.532;13.352;2024-03-02T03:20:59;169.40;;;90.45;;
41261;SDS011;29629;52.532;13.352;2024-03-02T03:23:25;172.23;;;90.13;;
41261;SDS011;29629;52.532;13.352;2024-03-02T03:25:53;173.75;;;91.55;;
41261;SDS011;29629;52.532;13.352;2024-03-02T03:28:20;168.43;;;89.35;;
41261;SDS011;29629;52.532;13.352;2024-03-02T03:30:48;169.80;;;90.63;;
41261;SDS011;29629;52.532;13.352;2024-03-02T03:33:15;167.15;;;89.28;;
41261;SDS011;29629;52.532;13.352;2024-03-02T03:35:42;178.30;;;92.25;;
41261;SDS011;29629;52.532;13.352;2024-03-02T03:38:09;164.07;;;88.20;;
41261;SDS011;29629;52.532;13.352;2024-03-02T03:40:37;160.55;;;88.00;;
41261;SDS011;29629;52.532;13.352;2024-03-02T03:43:03;157.13;;;87.32;;
41261;SDS011;29629;52.532;13.352;2024-03-02T03:45:30;161.18;;;90.88;;
41261;SDS011;29629;52.532;13.352;2024-03-02T03:47:59;174.20;;;92.13;;
41261;SDS011;29629;52.532;13.352;2024-03-02T03:50:26;157.20;;;86.78;;
41261;SDS011;29629;52.532;13.352;2024-03-02T03:52:52;162.43;;;89.57;;
41261;SDS011;29629;52.532;13.352;2024-03-02T03:55:19;158.55;;;87.55;;
41261;SDS011;29629;52.532;13.352;2024-03-02T03:57:46;160.82;;;88.53;;
41261;SDS011;29629;52.532;13.352;2024-03-02T04:00:14;158.02;;;86.90;;
41261;SDS011;29629;52.532;13.352;2024-03-02T04:02:41;154.93;;;88.38;;
41261;SDS011;29629;52.532;13.352;2024-03-02T04:05:09;166.50;;;89.03;;
41261;SDS011;29629;52.532;13.352;2024-03-02T04:07:36;166.25;;;88.40;;
41261;SDS011;29629;52.532;13.352;2024-03-02T04:10:08;159.98;;;87.93;;
41261;SDS011;29629;52.532;13.352;2024-03-02T04:12:37;152.93;;;86.05;;
41261;SDS011;29629;52.532;13.352;2024-03-02T04:15:05;158.30;;;86.38;;
41261;SDS011;29629;52.532;13.352;2024-03-02T04:17:33;155.98;;;86.00;;
41261;SDS011;29629;52.532;13.352;2024-03-02T04:20:01;155.43;;;83.60;;
41261;SDS011;29629;52.532;13.352;2024-03-02T04:22:32;162.57;;;86.93;;
41261;SDS011;29629;52.532;13.352;2024-03-02T04:25:00;161.15;;;87.38;;
41261;SDS011;29629;52.532;13.352;2024-03-02T04:27:29;160.27;;;88.05;;
41261;SDS011;29629;52.532;13.352;2024-03-02T04:29:57;159.75;;;86.45;;
41261;SDS011;29629;52.532;13.352;2024-03-02T04:32:25;156.00;;;87.13;;
41261;SDS011;29629;52.532;13.352;2024-03-02T04:34:52;164.88;;;88.40;;
41261;SDS011;29629;52.532;13.352;2024-03-02T04:37:19;155.95;;;85.80;;
41261;SDS011;29629;52.532;13.352;2024-03-02T04:39:47;151.45;;;86.82;;
41261;SDS011;29629;52.532;13.352;2024-03-02T04:42:14;149.38;;;85.22;;
41261;SDS011;29629;52.532;13.352;2024-03-02T04:44:41;149.48;;;85.03;;
41261;SDS011;29629;52.532;13.352;2024-03-02T04:47:08;153.32;;;84.50;;
41261;SDS011;29629;52.532;13.352;2024-03-02T04:49:35;154.20;;;84.97;;
41261;SDS011;29629;52.532;13.352;2024-03-02T04:52:02;151.65;;;86.05;;
41261;SDS011;29629;52.532;13.352;2024-03-02T04:54:29;147.95;;;81.90;;
41261;SDS011;29629;52.532;13.352;2024-03-02T04:56:58;157.90;;;86.50;;
41261;SDS011;29629;52.532;13.352;2024-03-02T04:59:25;158.50;;;85.63;;
41261;SDS011;29629;52.532;13.352;2024-03-02T05:01:51;154.43;;;84.45;;
41261;SDS011;29629;52.532;13.352;2024-03-02T05:04:18;154.30;;;85.93;;
41261;SDS011;29629;52.532;13.352;2024-03-02T05:06:46;149.98;;;85.45;;
41261;SDS011;29629;52.532;13.352;2024-03-02T05:09:17;157.98;;;86.18;;
41261;SDS011;29629;52.532;13.352;2024-03-02T05:11:44;151.88;;;83.57;;
41261;SDS011;29629;52.532;13.352;2024-03-02T05:14:32;146.23;;;82.28;;
41261;SDS011;29629;52.532;13.352;2024-03-02T05:16:59;150.65;;;83.90;;
41261;SDS011;29629;52.532;13.352;2024-03-02T05:19:26;156.85;;;86.72;;
41261;SDS011;29629;52.532;13.352;2024-03-02T05:21:53;149.73;;;83.82;;
41261;SDS011;29629;52.532;13.352;2024-03-02T05:24:20;149.48;;;82.90;;
41261;SDS011;29629;52.532;13.352;2024-03-02T05:26:47;145.15;;;82.47;;
41261;SDS011;29629;52.532;13.352;2024-03-02T05:29:14;153.20;;;85.70;;
41261;SDS011;29629;52.532;13.352;2024-03-02T05:31:42;149.93;;;83.43;;
41261;SDS011;29629;52.532;13.352;2024-03-02T05:34:09;152.95;;;84.45;;
41261;SDS011;29629;52.532;13.352;2024-03-02T05:36:36;167.18;;;89.18;;
41261;SDS011;29629;52.532;13.352;2024-03-02T05:39:04;159.30;;;85.82;;
41261;SDS011;29629;52.532;13.352;2024-03-02T05:41:34;156.52;;;84.60;;
41261;SDS011;29629;52.532;13.352;2024-03-02T05:44:01;160.05;;;87.93;;
41261;SDS011;29629;52.532;13.352;2024-03-02T05:46:28;154.32;;;84.75;;
41261;SDS011;29629;52.532;13.352;2024-03-02T05:48:56;160.75;;;88.20;;
41261;SDS011;29629;52.532;13.352;2024-03-02T05:51:23;158.40;;;87.72;;
41261;SDS011;29629;52.532;13.352;2024-03-02T05:53:50;179.50;;;89.63;;
41261;SDS011;29629;52.532;13.352;2024-03-02T05:56:17;160.48;;;87.15;;
41261;SDS011;29629;52.532;13.352;2024-03-02T05:58:44;154.18;;;86.03;;
41261;SDS011;29629;52.532;13.352;2024-03-02T06:01:22;156.70;;;84.63;;
41261;SDS011;29629;52.532;13.352;2024-03-02T06:03:53;166.50;;;88.78;;
41261;SDS011;29629;52.532;13.352;2024-03-02T06:06:22;160.10;;;87.45;;
41261;SDS011;29629;52.532;13.352;2024-03-02T06:08:49;161.52;;;87.95;;
41261;SDS011;29629;52.532;13.352;2024-03-02T06:11:16;162.75;;;89.43;;
41261;SDS011;29629;52.532;13.352;2024-03-02T06:13:43;163.90;;;89.18;;
41261;SDS011;29629;52.532;13.352;2024-03-02T06:16:10;166.90;;;89.20;;
41261;SDS011;29629;52.532;13.352;2024-03-02T06:18:37;165.18;;;88.63;;
41261;SDS011;29629;52.532;13.352;2024-03-02T06:21:05;170.00;;;90.35;;
41261;SDS011;29629;52.532;13.352;2024-03-02T06:23:33;160.75;;;87.68;;
41261;SDS011;29629;52.532;13.352;2024-03-02T06:26:00;164.52;;;88.43;;
41261;SDS011;29629;52.532;13.352;2024-03-02T06:28:28;156.88;;;86.78;;
41261;SDS011;29629;52.532;13.352;2024-03-02T06:30:55;170.25;;;91.97;;
41261;SDS011;29629;52.532;13.352;2024-03-02T06:33:22;167.18;;;89.85;;
41261;SDS011;29629;52.532;13.352;2024-03-02T06:35:49;174.70;;;92.25;;
41261;SDS011;29629;52.532;13.352;2024-03-02T06:38:17;166.30;;;88.53;;
41261;SDS011;29629;52.532;13.352;2024-03-02T06:40:44;163.07;;;88.22;;
41261;SDS011;29629;52.532;13.352;2024-03-02T06:43:11;162.45;;;89.43;;
41261;SDS011;29629;52.532;13.352;2024-03-02T06:45:38;161.60;;;90.07;;
41261;SDS011;29629;52.532;13.352;2024-03-02T06:48:06;162.73;;;86.72;;
41261;SDS011;29629;52.532;13.352;2024-03-02T06:50:33;159.60;;;86.47;;
41261;SDS011;29629;52.532;13.352;2024-03-02T06:53:00;177.60;;;88.35;;
41261;SDS011;29629;52.532;13.352;2024-03-02T06:55:30;163.88;;;87.18;;
41261;SDS011;29629;52.532;13.352;2024-03-02T06:57:57;164.27;;;87.93;;
41261;SDS011;29629;52.532;13.352;2024-03-02T07:00:25;161.32;;;87.95;;
41261;SDS011;29629;52.532;13.352;2024-03-02T07:02:52;161.10;;;89.70;;
41261;SDS011;29629;52.532;13.352;2024-03-02T07:05:19;166.20;;;86.90;;
41261;SDS011;29629;52.532;13.352;2024-03-02T07:07:46;152.75;;;85.60;;
41261;SDS011;29629;52.532;13.352;2024-03-02T07:10:13;172.23;;;91.82;;
41261;SDS011;29629;52.532;13.352;2024-03-02T07:12:41;149.75;;;84.55;;
41261;SDS011;29629;52.532;13.352;2024-03-02T07:15:09;167.98;;;88.75;;
41261;SDS011;29629;52.532;13.352;2024-03-02T07:17:49;157.10;;;86.22;;
41261;SDS011;29629;52.532;13.352;2024-03-02T07:20:16;164.13;;;88.18;;
41261;SDS011;29629;52.532;13.352;2024-03-02T07:22:43;145.10;;;82.90;;
41261;SDS011;29629;52.532;13.352;2024-03-02T07:25:10;163.73;;;87.10;;
41261;SDS011;29629;52.532;13.352;2024-03-02T07:27:37;161.80;;;89.10;;
41261;SDS011;29629;52.532;13.352;2024-03-02T07:30:06;156.52;;;85.53;;
41261;SDS011;29629;52.532;13.352;2024-03-02T07:32:33;162.82;;;87.45;;
41261;SDS011;29629;52.532;13.352;2024-03-02T07:35:00;157.38;;;85.05;;
41261;SDS011;29629;52.532;13.352;2024-03-02T07:37:28;160.43;;;84.90;;
41261;SDS011;29629;52.532;13.352;2024-03-02T07:39:58;152.77;;;83.25;;
41261;SDS011;29629;52.532;13.352;2024-03-02T07:42:26;153.82;;;83.90;;
41261;SDS011;29629;52.532;13.352;2024-03-02T07:44:54;153.70;;;82.97;;
41261;SDS011;29629;52.532;13.352;2024-03-02T07:47:22;155.43;;;86.07;;
41261;SDS011;29629;52.532;13.352;2024-03-02T07:49:49;156.18;;;86.47;;
41261;SDS011;29629;52.532;13.352;2024-03-02T07:52:16;157.18;;;85.60;;
41261;SDS011;29629;52.532;13.352;2024-03-02T07:54:43;161.13;;;85.65;;
41261;SDS011;29629;52.532;13.352;2024-03-02T07:57:10;163.90;;;87.45;;
41261;SDS011;29629;52.532;13.352;2024-03-02T07:59:37;153.70;;;84.82;;
41261;SDS011;29629;52.532;13.352;2024-03-02T08:02:04;151.23;;;83.78;;
41261;SDS011;29629;52.532;13.352;2024-03-02T08:04:33;158.70;;;85.22;;
41261;SDS011;29629;52.532;13.352;2024-03-02T08:07:01;157.68;;;86.20;;
41261;SDS011;29629;52.532;13.352;2024-03-02T08:09:28;157.20;;;85.88;;
41261;SDS011;29629;52.532;13.352;2024-03-02T08:11:55;158.55;;;83.95;;
41261;SDS011;29629;52.532;13.352;2024-03-02T08:14:22;161.80;;;87.65;;
41261;SDS011;29629;52.532;13.352;2024-03-02T08:16:50;158.10;;;86.45;;
41261;SDS011;29629;52.532;13.352;2024-03-02T08:19:17;159.85;;;86.30;;
41261;SDS011;29629;52.532;13.352;2024-03-02T08:21:46;153.32;;;83.68;;
41261;SDS011;29629;52.532;13.352;2024-03-02T08:24:13;146.57;;;82.80;;
41261;SDS011;29629;52.532;13.352;2024-03-02T08:26:40;163.27;;;88.63;;
41261;SDS011;29629;52.532;13.352;2024-03-02T08:29:07;166.32;;;86.45;;
41261;SDS011;29629;52.532;13.352;2024-03-02T08:31:34;153.95;;;82.97;;
41261;SDS011;29629;52.532;13.352;2024-03-02T08:34:01;150.52;;;84.25;;
41261;SDS011;29629;52.532;13.352;2024-03-02T08:36:28;172.05;;;114.65;;
41261;SDS011;29629;52.532;13.352;2024-03-02T08:38:56;157.20;;;84.85;;
41261;SDS011;29629;52.532;13.352;2024-03-02T08:41:23;163.32;;;102.07;;
41261;SDS011;29629;52.532;13.352;2024-03-02T08:43:50;154.32;;;86.78;;
41261;SDS011;29629;52.532;13.352;2024-03-02T08:46:17;150.27;;;84.95;;
41261;SDS011;29629;52.532;13.352;2024-03-02T08:48:44;158.57;;;88.35;;
41261;SDS011;29629;52.532;13.352;2024-03-02T08:51:11;160.60;;;90.30;;
41261;SDS011;29629;52.532;13.352;2024-03-02T08:53:38;152.93;;;84.82;;
41261;SDS011;29629;52.532;13.352;2024-03-02T08:56:07;154.18;;;83.60;;
41261;SDS011;29629;52.532;13.352;2024-03-02T08:58:34;154.73;;;84.28;;
41261;SDS011;29629;52.532;13.352;2024-03-02T09:01:01;157.77;;;88.75;;
41261;SDS011;29629;52.532;13.352;2024-03-02T09:03:28;151.30;;;86.05;;
41261;SDS011;29629;52.532;13.352;2024-03-02T09:05:58;158.98;;;85.43;;
41261;SDS011;29629;52.532;13.352;2024-03-02T09:08:25;151.00;;;84.38;;
41261;SDS011;29629;52.532;13.352;2024-03-02T09:10:52;155.10;;;86.13;;
41261;SDS011;29629;52.532;13.352;2024-03-02T09:13:20;150.00;;;85.47;;
41261;SDS011;29629;52.532;13.352;2024-03-02T09:15:48;153.70;;;86.00;;
41261;SDS011;29629;52.532;13.352;2024-03-02T09:18:15;149.35;;;82.78;;
41261;SDS011;29629;52.532;13.352;2024-03-02T09:20:42;159.20;;;88.75;;
41261;SDS011;29629;52.532;13.352;2024-03-02T09:23:09;160.05;;;86.80;;
41261;SDS011;29629;52.532;13.352;2024-03-02T09:25:36;155.18;;;85.70;;
41261;SDS011;29629;52.532;13.352;2024-03-02T09:28:03;161.13;;;84.85;;
41261;SDS011;29629;52.532;13.352;2024-03-02T09:30:31;156.65;;;88.95;;
41261;SDS011;29629;52.532;13.352;2024-03-02T09:32:59;161.38;;;87.90;;
41261;SDS011;29629;52.532;13.352;2024-03-02T09:35:26;160.38;;;87.60;;
41261;SDS011;29629;52.532;13.352;2024-03-02T09:37:53;157.73;;;85.72;;
41261;SDS011;29629;52.532;13.352;2024-03-02T09:40:21;156.25;;;85.28;;
41261;SDS011;29629;52.532;13.352;2024-03-02T09:42:49;152.68;;;84.13;;
41261;SDS011;29629;52.532;13.352;2024-03-02T09:45:18;153.82;;;87.82;;
41261;SDS011;29629;52.532;13.352;2024-03-02T09:47:50;153.45;;;85.85;;
41261;SDS011;29629;52.532;13.352;2024-03-02T09:50:17;151.60;;;85.22;;
41261;SDS011;29629;52.532;13.352;2024-03-02T09:52:44;156.65;;;86.28;;
41261;SDS011;29629;52.532;13.352;2024-03-02T09:55:15;156.70;;;85.53;;
41261;SDS011;29629;52.532;13.352;2024-03-02T09:57:43;150.88;;;84.72;;
41261;SDS011;29629;52.532;13.352;2024-03-02T10:00:11;150.93;;;83.13;;
41261;SDS011;29629;52.532;13.352;2024-03-02T10:02:40;155.05;;;86.72;;
41261;SDS011;29629;52.532;13.352;2024-03-02T10:05:09;165.82;;;90.53;;
41261;SDS011;29629;52.532;13.352;2024-03-02T10:07:36;162.88;;;87.68;;
41261;SDS011;29629;52.532;13.352;2024-03-02T10:10:12;158.93;;;86.05;;
41261;SDS011;29629;52.532;13.352;2024-03-02T10:12:40;158.30;;;86.25;;
41261;SDS011;29629;52.532;13.352;2024-03-02T10:15:08;160.75;;;84.38;;
41261;SDS011;29629;52.532;13.352;2024-03-02T10:17:35;158.25;;;86.85;;
41261;SDS011;29629;52.532;13.352;2024-03-02T10:20:23;150.10;;;82.88;;
41261;SDS011;29629;52.532;13.352;2024-03-02T10:22:51;158.02;;;88.25;;
41261;SDS011;29629;52.532;13.352;2024-03-02T10:25:30;157.63;;;87.90;;
41261;SDS011;29629;52.532;13.352;2024-03-02T10:27:58;160.48;;;88.05;;
41261;SDS011;29629;52.532;13.352;2024-03-02T10:30:25;148.77;;;85.63;;
41261;SDS011;29629;52.532;13.352;2024-03-02T10:32:53;169.93;;;96.90;;
41261;SDS011;29629;52.532;13.352;2024-03-02T10:35:22;179.93;;;101.85;;
41261;SDS011;29629;52.532;13.352;2024-03-02T10:37:51;150.60;;;88.40;;
41261;SDS011;29629;52.532;13.352;2024-03-02T10:40:21;175.90;;;99.75;;
41261;SDS011;29629;52.532;13.352;2024-03-02T10:42:49;159.02;;;87.57;;
41261;SDS011;29629;52.532;13.352;2024-03-02T10:45:17;152.07;;;88.10;;
41261;SDS011;29629;52.532;13.352;2024-03-02T10:47:47;141.27;;;83.10;;
41261;SDS011;29629;52.532;13.352;2024-03-02T10:50:14;148.18;;;85.85;;
41261;SDS011;29629;52.532;13.352;2024-03-02T10:52:48;142.65;;;85.28;;
41261;SDS011;29629;52.532;13.352;2024-03-02T10:55:19;153.98;;;85.85;;
41261;SDS011;29629;52.532;13.352;2024-03-02T10:57:50;151.85;;;82.45;;
41261;SDS011;29629;52.532;13.352;2024-03-02T11:00:18;155.52;;;86.13;;
41261;SDS011;29629;52.532;13.352;2024-03-02T11:02:50;149.55;;;84.03;;
41261;SDS011;29629;52.532;13.352;2024-03-02T11:05:23;136.13;;;78.60;;
41261;SDS011;29629;52.532;13.352;2024-03-02T11:07:56;141.40;;;80.93;;
41261;SDS011;29629;52.532;13.352;2024-03-02T11:10:29;141.37;;;80.60;;
41261;SDS011;29629;52.532;13.352;2024-03-02T11:13:02;146.82;;;82.78;;
41261;SDS011;29629;52.532;13.352;2024-03-02T11:15:31;144.15;;;80.82;;
41261;SDS011;29629;52.532;13.352;2024-03-02T11:18:08;140.77;;;80.53;;
41261;SDS011;29629;52.532;13.352;2024-03-02T11:20:36;140.25;;;81.50;;
41261;SDS011;29629;52.532;13.352;2024-03-02T11:23:06;146.25;;;82.43;;
41261;SDS011;29629;52.532;13.352;2024-03-02T11:25:34;148.90;;;82.53;;
41261;SDS011;29629;52.532;13.352;2024-03-02T11:28:02;141.18;;;82.53;;
41261;SDS011;29629;52.532;13.352;2024-03-02T11:30:49;141.30;;;81.35;;
41261;SDS011;29629;52.532;13.352;2024-03-02T11:33:15;153.30;;;83.35;;
41261;SDS011;29629;52.532;13.352;2024-03-02T11:35:54;144.70;;;82.30;;
41261;SDS011;29629;52.532;13.352;2024-03-02T11:38:24;140.93;;;84.20;;
41261;SDS011;29629;52.532;13.352;2024-03-02T11:40:56;148.80;;;82.63;;
41261;SDS011;29629;52.532;13.352;2024-03-02T11:43:23;136.73;;;81.30;;
41261;SDS011;29629;52.532;13.352;2024-03-02T11:45:56;151.60;;;83.65;;
41261;SDS011;29629;52.532;13.352;2024-03-02T11:48:23;132.60;;;78.55;;
41261;SDS011;29629;52.532;13.352;2024-03-02T11:50:51;137.38;;;79.68;;
41261;SDS011;29629;52.532;13.352;2024-03-02T11:53:19;141.70;;;82.13;;
41261;SDS011;29629;52.532;13.352;2024-03-02T11:55:48;154.27;;;84.85;;
41261;SDS011;29629;52.532;13.352;2024-03-02T11:58:16;145.98;;;83.00;;
41261;SDS011;29629;52.532;13.352;2024-03-02T12:00:45;136.60;;;80.10;;
41261;SDS011;29629;52.532;13.352;2024-03-02T12:03:12;140.48;;;80.57;;
41261;SDS011;29629;52.532;13.352;2024-03-02T12:05:40;162.48;;;87.43;;
41261;SDS011;29629;52.532;13.352;2024-03-02T12:08:08;138.35;;;80.07;;
41261;SDS011;29629;52.532;13.352;2024-03-02T12:10:35;139.55;;;79.97;;
41261;SDS011;29629;52.532;13.352;2024-03-02T12:13:05;145.88;;;81.75;;
41261;SDS011;29629;52.532;13.352;2024-03-02T12:15:35;162.15;;;86.65;;
41261;SDS011;29629;52.532;13.352;2024-03-02T12:18:03;142.30;;;81.13;;
41261;SDS011;29629;52.532;13.352;2024-03-02T12:20:31;141.50;;;81.13;;
41261;SDS011;29629;52.532;13.352;2024-03-02T12:22:59;138.40;;;79.25;;
41261;SDS011;29629;52.532;13.352;2024-03-02T12:25:27;148.45;;;81.53;;
41261;SDS011;29629;52.532;13.352;2024-03-02T12:27:56;143.23;;;83.22;;
41261;SDS011;29629;52.532;13.352;2024-03-02T12:30:26;143.10;;;81.85;;
41261;SDS011;29629;52.532;13.352;2024-03-02T12:32:55;148.60;;;82.13;;
41261;SDS011;29629;52.532;13.352;2024-03-02T12:35:22;142.75;;;80.60;;
41261;SDS011;29629;52.532;13.352;2024-03-02T12:37:52;148.10;;;82.63;;
41261;SDS011;29629;52.532;13.352;2024-03-02T12:40:20;148.98;;;82.88;;
41261;SDS011;29629;52.532;13.352;2024-03-02T12:42:48;150.45;;;83.13;;
41261;SDS011;29629;52.532;13.352;2024-03-02T12:45:16;156.70;;;84.72;;
41261;SDS011;29629;52.532;13.352;2024-03-02T12:47:50;136.50;;;78.30;;
41261;SDS011;29629;52.532;13.352;2024-03-02T12:50:17;147.10;;;81.90;;
41261;SDS011;29629;52.532;13.352;2024-03-02T12:52:50;146.48;;;82.65;;
41261;SDS011;29629;52.532;13.352;2024-03-02T12:55:18;144.25;;;79.53;;
41261;SDS011;29629;52.532;13.352;2024-03-02T12:57:47;145.80;;;81.85;;
41261;SDS011;29629;52.532;13.352;2024-03-02T13:00:17;128.85;;;72.72;;
41261;SDS011;29629;52.532;13.352;2024-03-02T13:02:45;114.60;;;69.60;;
41261;SDS011;29629;52.532;13.352;2024-03-02T13:05:14;108.88;;;73.80;;
41261;SDS011;29629;52.532;13.352;2024-03-02T13:07:41;121.75;;;73.90;;
41261;SDS011;29629;52.532;13.352;2024-03-02T13:10:10;133.73;;;78.00;;
41261;SDS011;29629;52.532;13.352;2024-03-02T13:12:38;145.75;;;86.57;;
41261;SDS011;29629;52.532;13.352;2024-03-02T13:15:05;143.95;;;84.18;;
41261;SDS011;29629;52.532;13.352;2024-03-02T13:17:34;149.43;;;85.93;;
41261;SDS011;29629;52.532;13.352;2024-03-02T13:20:02;137.90;;;79.13;;
41261;SDS011;29629;52.532;13.352;2024-03-02T13:22:34;114.53;;;70.90;;
41261;SDS011;29629;52.532;13.352;2024-03-02T13:25:01;110.00;;;73.07;;
41261;SDS011;29629;52.532;13.352;2024-03-02T13:27:30;101.10;;;83.50;;
41261;SDS011;29629;52.532;13.352;2024-03-02T13:29:57;120.82;;;74.57;;
41261;SDS011;29629;52.532;13.352;2024-03-02T13:32:24;137.32;;;80.72;;
41261;SDS011;29629;52.532;13.352;2024-03-02T13:34:51;147.45;;;88.65;;
41261;SDS011;29629;52.532;13.352;2024-03-02T13:37:19;161.23;;;91.75;;
41261;SDS011;29629;52.532;13.352;2024-03-02T13:39:48;147.82;;;87.28;;
41261;SDS011;29629;52.532;13.352;2024-03-02T13:42:15;147.52;;;84.65;;
41261;SDS011;29629;52.532;13.352;2024-03-02T13:44:43;148.57;;;87.05;;
41261;SDS011;29629;52.532;13.352;2024-03-02T13:47:10;147.40;;;83.97;;
41261;SDS011;29629;52.532;13.352;2024-03-02T13:49:37;149.45;;;85.78;;
41261;SDS011;29629;52.532;13.352;2024-03-02T13:52:06;145.48;;;83.57;;
41261;SDS011;29629;52.532;13.352;2024-03-02T13:54:38;147.35;;;83.57;;
41261;SDS011;29629;52.532;13.352;2024-03-02T13:57:06;154.70;;;85.45;;
41261;SDS011;29629;52.532;13.352;2024-03-02T13:59:38;146.05;;;83.35;;
41261;SDS011;29629;52.532;13.352;2024-03-02T14:02:06;139.63;;;80.43;;
41261;SDS011;29629;52.532;13.352;2024-03-02T14:04:34;145.98;;;82.45;;